Time;durP1;ratioP1;P1;durP2;ratioP2;P2;SDS_P1;SDS_P2;PMS_P1;PMS_P2;Temp;Humidity;BMP_temperature;BMP_pressure;BME280_temperature;BME280_humidity;BME280_pressure;Samples;Min_cycle;Max_cycle;Signal;HPM_P1;HPM_P2
2023/02/19 00:00:16;;;;;;;;;;;;;;;6.90;87.54;100975.09;4194874;28;20019;-65
2023/02/19 00:02:18;;;;;;;;;;;;;;;6.88;87.49;100969.03;4196603;28;20034;-65
2023/02/19 00:04:21;;;;;;;;;;;;;;;6.88;87.21;100970.88;4194973;28;20019;-65
2023/02/19 00:06:24;;;;;;;;;;;;;;;6.87;87.06;100972.72;4195626;28;20035;-65
2023/02/19 00:08:25;;;;;;;;;;;;;;;6.86;87.28;100976.38;4195344;28;20047;-65
2023/02/19 00:10:29;;;;;;;;;;;;;;;6.85;87.29;100975.53;4195932;28;20371;-65
2023/02/19 00:12:31;;;;;;;;;;;;;;;6.84;87.36;100979.22;4195953;28;20024;-65
2023/02/19 00:14:33;;;;;;;;;;;;;;;6.83;87.50;100977.53;4194763;28;20020;-65
2023/02/19 00:16:35;;;;;;;;;;;;;;;6.80;87.32;100982.34;4195578;28;20342;-65
2023/02/19 00:18:37;;;;;;;;;;;;;;;6.77;87.52;100985.31;4196169;28;20375;-65
2023/02/19 00:20:39;;;;;;;;;;;;;;;6.76;88.40;100976.41;4194750;28;20091;-65
2023/02/19 00:22:41;;;;;;;;;;;;;;;6.79;88.73;100972.63;4195596;28;20019;-65
2023/02/19 00:24:43;;;;;;;;;;;;;;;6.80;88.99;100972.47;4195392;28;20011;-65
2023/02/19 00:26:46;;;;;;;;;;;;;;;6.85;89.24;100978.22;4195687;28;20059;-65
2023/02/19 00:28:48;;;;;;;;;;;;;;;6.87;89.57;100971.88;4194128;28;20011;-65
2023/02/19 00:30:50;;;;;;;;;;;;;;;6.90;89.84;100971.59;4194798;28;20012;-65
2023/02/19 00:32:54;;;;;;;;;;;;;;;6.89;89.20;100961.81;4195149;28;20007;-66
2023/02/19 00:34:56;;;;;;;;;;;;;;;6.90;89.58;100966.22;4194024;28;20361;-65
2023/02/19 00:36:58;;;;;;;;;;;;;;;6.91;89.79;100958.00;4194523;28;20019;-65
2023/02/19 00:39:00;;;;;;;;;;;;;;;6.94;89.84;100955.00;4194994;28;20016;-65
2023/02/19 00:41:17;;;;;;;;;;;;;;;6.96;89.36;100954.84;4194751;28;20003;-65
2023/02/19 00:43:21;;;;;;;;;;;;;;;6.95;88.83;100951.34;4192489;28;20031;-65
2023/02/19 00:45:23;;;;;;;;;;;;;;;6.90;88.83;100950.94;4193490;28;20018;-65
2023/02/19 00:47:26;;;;;;;;;;;;;;;6.88;88.53;100950.25;4200704;28;20493;-65
2023/02/19 00:49:28;;;;;;;;;;;;;;;6.82;88.33;100943.63;4185995;28;20384;-65
2023/02/19 00:51:31;;;;;;;;;;;;;;;6.78;88.53;100946.75;4202291;28;20850;-65
2023/02/19 00:53:33;;;;;;;;;;;;;;;6.76;88.90;100952.25;4194987;28;20019;-66
2023/02/19 00:55:35;;;;;;;;;;;;;;;6.75;88.63;100958.63;4192927;28;20022;-65
2023/02/19 00:57:38;;;;;;;;;;;;;;;6.72;88.73;100958.91;4186470;28;20012;-65
2023/02/19 00:59:42;;;;;;;;;;;;;;;6.69;88.78;100953.81;4185167;28;20024;-65
2023/02/19 01:01:44;;;;;;;;;;;;;;;6.67;89.23;100950.44;4194695;28;20458;-65
2023/02/19 01:03:46;;;;;;;;;;;;;;;6.67;89.68;100953.13;4185729;28;20386;-65
2023/02/19 01:05:48;;;;;;;;;;;;;;;6.68;89.74;100953.00;4192657;28;20011;-65
2023/02/19 01:07:50;;;;;;;;;;;;;;;6.70;89.87;100936.75;4192151;28;20031;-65
2023/02/19 01:09:52;;;;;;;;;;;;;;;6.71;89.65;100941.13;4194612;28;20016;-65
2023/02/19 01:11:54;;;;;;;;;;;;;;;6.70;89.67;100938.59;4194574;28;20011;-65
2023/02/19 01:13:57;;;;;;;;;;;;;;;6.67;89.45;100943.25;4193955;28;20027;-65
2023/02/19 01:16:04;;;;;;;;;;;;;;;6.64;89.23;100934.66;4194152;28;20019;-65
2023/02/19 01:18:06;;;;;;;;;;;;;;;6.63;89.51;100935.63;4194637;28;20019;-65
2023/02/19 01:20:08;;;;;;;;;;;;;;;6.60;89.30;100935.91;4194386;28;20016;-65
2023/02/19 01:22:10;;;;;;;;;;;;;;;6.61;89.27;100929.56;4194909;28;20027;-65
2023/02/19 01:24:12;;;;;;;;;;;;;;;6.60;89.57;100928.72;4193667;28;19960;-65
2023/02/19 01:26:15;;;;;;;;;;;;;;;6.62;89.37;100915.16;4194787;28;20027;-65
2023/02/19 01:28:17;;;;;;;;;;;;;;;6.59;89.52;100907.41;4194090;28;20020;-65
2023/02/19 01:30:20;;;;;;;;;;;;;;;6.60;89.85;100896.53;4201236;28;20035;-65
2023/02/19 01:32:23;;;;;;;;;;;;;;;6.63;90.22;100884.63;4194957;28;20024;-65
2023/02/19 01:34:25;;;;;;;;;;;;;;;6.65;89.91;100867.41;4194895;28;20028;-65
2023/02/19 01:36:28;;;;;;;;;;;;;;;6.67;90.33;100873.44;4185533;28;20476;-65
2023/02/19 01:38:30;;;;;;;;;;;;;;;6.70;89.97;100885.75;4201715;28;20031;-65
2023/02/19 01:40:32;;;;;;;;;;;;;;;6.67;89.71;100886.88;4192022;28;20019;-67
2023/02/19 01:42:34;;;;;;;;;;;;;;;6.65;89.19;100885.34;4189530;28;20084;-67
2023/02/19 01:44:55;;;;;;;;;;;;;;;6.60;89.02;100890.28;4191465;28;20012;-67
2023/02/19 01:46:57;;;;;;;;;;;;;;;6.52;89.09;100885.69;4201959;28;20016;-67
2023/02/19 01:49:01;;;;;;;;;;;;;;;6.46;88.86;100871.00;4194557;28;20404;-67
2023/02/19 01:51:03;;;;;;;;;;;;;;;6.44;88.95;100875.69;4194383;28;20364;-67
2023/02/19 01:53:06;;;;;;;;;;;;;;;6.46;89.24;100878.22;4193315;28;20046;-67
2023/02/19 01:55:08;;;;;;;;;;;;;;;6.48;89.78;100871.69;4185629;28;20442;-67
2023/02/19 01:57:11;;;;;;;;;;;;;;;6.52;89.74;100864.22;4194114;28;20015;-67
2023/02/19 01:59:13;;;;;;;;;;;;;;;6.57;89.96;100861.09;4194303;28;20011;-67
2023/02/19 02:01:15;;;;;;;;;;;;;;;6.58;89.85;100860.09;4190975;28;20019;-67
2023/02/19 02:03:17;;;;;;;;;;;;;;;6.58;89.44;100860.94;4195325;28;20015;-67
2023/02/19 02:05:23;;;;;;;;;;;;;;;6.57;89.14;100853.88;4201564;28;20051;-66
2023/02/19 02:12:06;;;;;;;;;;;;;;;6.57;89.19;100855.72;4187040;28;20021;-67
2023/02/19 02:14:08;;;;;;;;;;;;;;;6.59;89.37;100845.69;4194397;28;20058;-67
2023/02/19 02:16:20;;;;;;;;;;;;;;;6.57;88.94;100848.50;4197097;28;19968;-67
2023/02/19 02:18:26;;;;;;;;;;;;;;;6.56;89.19;100835.25;4199347;28;20099;-67
2023/02/19 02:20:39;;;;;;;;;;;;;;;6.56;89.16;100846.81;4192728;28;20019;-67
2023/02/19 02:22:43;;;;;;;;;;;;;;;6.58;88.72;100855.59;4196519;28;20019;-67
2023/02/19 02:24:56;;;;;;;;;;;;;;;6.56;88.45;100848.66;4196066;28;20445;-67
2023/02/19 02:27:04;;;;;;;;;;;;;;;6.56;88.68;100841.44;4190102;28;20041;-67
2023/02/19 02:29:18;;;;;;;;;;;;;;;6.56;88.52;100848.66;4190521;28;20023;-67
2023/02/19 02:31:23;;;;;;;;;;;;;;;6.57;88.51;100850.38;4204922;28;20664;-67
2023/02/19 02:33:28;;;;;;;;;;;;;;;6.58;88.25;100850.22;4203352;28;20028;-67
2023/02/19 02:35:31;;;;;;;;;;;;;;;6.60;88.06;100852.72;4211970;28;20026;-67
2023/02/19 02:37:34;;;;;;;;;;;;;;;6.61;87.39;100854.41;4196727;28;20015;-67
2023/02/19 02:39:36;;;;;;;;;;;;;;;6.58;87.09;100849.34;4203873;28;20010;-67
2023/02/19 02:41:41;;;;;;;;;;;;;;;6.60;86.81;100847.34;4188160;28;20028;-67
2023/02/19 02:43:43;;;;;;;;;;;;;;;6.60;86.81;100850.03;4205055;28;20031;-67
2023/02/19 02:45:46;;;;;;;;;;;;;;;6.58;85.99;100849.34;4185453;28;20020;-67
2023/02/19 02:48:06;;;;;;;;;;;;;;;6.58;85.95;100838.63;4188629;28;20028;-67
2023/02/19 02:50:09;;;;;;;;;;;;;;;6.58;85.71;100830.56;4188402;28;20049;-67
2023/02/19 02:55:01;;;;;;;;;;;;;;;6.59;86.09;100837.63;4197864;28;20015;-67
2023/02/19 02:56:57;;;;;;;;;;;;;;;6.59;85.47;100832.25;4184195;28;20458;-67
2023/02/19 02:59:02;;;;;;;;;;;;;;;6.56;85.79;100833.41;4187840;28;20389;-67
2023/02/19 03:03:26;;;;;;;;;;;;;;;6.56;85.03;100840.63;4210128;28;20433;-65
2023/02/19 03:07:51;;;;;;;;;;;;;;;6.56;85.77;100841.44;4210446;28;20038;-65
2023/02/19 03:09:54;;;;;;;;;;;;;;;6.57;85.90;100845.84;4194154;28;20050;-65
2023/02/19 03:21:19;;;;;;;;;;;;;;;6.52;84.24;100850.81;4209577;28;20556;-64
2023/02/19 03:26:02;;;;;;;;;;;;;;;6.49;84.54;100854.63;4204012;28;20028;-64
2023/02/19 03:28:15;;;;;;;;;;;;;;;6.50;84.55;100860.81;4210555;28;20476;-64
2023/02/19 03:30:18;;;;;;;;;;;;;;;6.48;84.11;100866.34;4193383;28;20039;-64
2023/02/19 03:32:21;;;;;;;;;;;;;;;6.45;83.77;100869.31;4204299;28;20375;-64
2023/02/19 03:34:26;;;;;;;;;;;;;;;6.45;84.06;100868.47;4187998;28;20057;-64
2023/02/19 03:36:30;;;;;;;;;;;;;;;6.44;84.13;100875.69;4187292;28;20011;-65
2023/02/19 03:38:34;;;;;;;;;;;;;;;6.43;83.72;100868.63;4195160;28;20037;-65
2023/02/19 03:40:38;;;;;;;;;;;;;;;6.42;83.37;100863.41;4194708;28;20454;-65
2023/02/19 03:42:44;;;;;;;;;;;;;;;6.38;82.79;100870.91;4195488;28;20031;-65
2023/02/19 03:44:52;;;;;;;;;;;;;;;6.34;82.59;100872.19;4194002;28;20026;-65
2023/02/19 03:46:54;;;;;;;;;;;;;;;6.31;82.30;100873.31;4186363;28;20019;-65
2023/02/19 03:48:58;;;;;;;;;;;;;;;6.24;81.49;100869.53;4186788;28;20012;-65
2023/02/19 03:51:16;;;;;;;;;;;;;;;6.17;80.82;100875.63;4202980;28;20019;-65
2023/02/19 03:53:22;;;;;;;;;;;;;;;6.13;81.53;100872.41;4211444;28;20098;-65
2023/02/19 03:55:26;;;;;;;;;;;;;;;6.13;81.10;100870.56;4210932;28;20014;-65
2023/02/19 03:57:30;;;;;;;;;;;;;;;6.11;81.04;100880.59;4194006;28;20027;-65
2023/02/19 03:59:33;;;;;;;;;;;;;;;6.12;80.81;100878.75;4193697;28;20031;-65
2023/02/19 04:01:37;;;;;;;;;;;;;;;6.07;80.85;100876.50;4203293;28;20055;-65
2023/02/19 04:03:40;;;;;;;;;;;;;;;6.01;80.39;100887.78;4195654;28;20051;-65
2023/02/19 04:05:43;;;;;;;;;;;;;;;6.01;80.64;100878.91;4186458;28;20032;-65
2023/02/19 04:07:47;;;;;;;;;;;;;;;5.95;80.47;100877.59;4187968;28;20611;-65
2023/02/19 04:09:50;;;;;;;;;;;;;;;5.90;80.69;100890.59;4186523;28;20016;-65
2023/02/19 04:11:54;;;;;;;;;;;;;;;5.89;80.78;100899.63;4203640;28;20026;-66
2023/02/19 04:13:58;;;;;;;;;;;;;;;5.88;80.11;100897.94;4204328;28;20067;-65
2023/02/19 04:16:00;;;;;;;;;;;;;;;5.85;79.44;100900.91;4195535;28;20354;-65
2023/02/19 04:18:04;;;;;;;;;;;;;;;5.82;79.89;100895.84;4195854;28;20465;-65
2023/02/19 04:20:07;;;;;;;;;;;;;;;5.81;79.53;100902.16;4195684;28;20023;-65
2023/02/19 04:22:09;;;;;;;;;;;;;;;5.81;79.71;100912.91;4196188;28;20020;-65
2023/02/19 04:24:13;;;;;;;;;;;;;;;5.73;79.91;100914.44;4186093;28;20075;-65
2023/02/19 04:26:15;;;;;;;;;;;;;;;5.72;79.27;100907.41;4195478;28;19939;-65
2023/02/19 04:28:19;;;;;;;;;;;;;;;5.71;79.22;100921.78;4195851;28;20003;-65
2023/02/19 04:30:22;;;;;;;;;;;;;;;5.71;79.09;100916.41;4195023;28;20369;-65
2023/02/19 04:32:24;;;;;;;;;;;;;;;5.70;79.46;100919.25;4195606;28;20016;-65
2023/02/19 04:34:25;;;;;;;;;;;;;;;5.65;79.91;100919.66;4196724;28;20028;-65
2023/02/19 04:36:27;;;;;;;;;;;;;;;5.60;79.47;100925.44;4195853;28;20030;-66
2023/02/19 04:38:29;;;;;;;;;;;;;;;5.59;79.00;100928.25;4194390;28;20019;-65
2023/02/19 04:40:33;;;;;;;;;;;;;;;5.59;79.82;100933.63;4194059;28;20012;-66
2023/02/19 04:42:35;;;;;;;;;;;;;;;5.55;79.07;100933.06;4186603;28;20011;-65
2023/02/19 04:44:38;;;;;;;;;;;;;;;5.59;79.21;100929.13;4194796;28;20019;-66
2023/02/19 04:46:40;;;;;;;;;;;;;;;5.53;79.61;100937.72;4195356;28;20036;-65
2023/02/19 04:48:43;;;;;;;;;;;;;;;5.53;79.80;100931.50;4196051;28;20011;-64
2023/02/19 04:50:45;;;;;;;;;;;;;;;5.55;79.77;100933.06;4195244;28;20294;-65
2023/02/19 04:52:47;;;;;;;;;;;;;;;5.52;79.16;100937.84;4195938;28;20015;-66
2023/02/19 04:54:49;;;;;;;;;;;;;;;5.49;79.46;100932.78;4194387;28;20023;-66
2023/02/19 04:56:52;;;;;;;;;;;;;;;5.49;79.23;100935.47;4196048;28;20019;-66
2023/02/19 04:58:54;;;;;;;;;;;;;;;5.45;79.26;100934.88;4194933;28;20120;-66
2023/02/19 05:00:56;;;;;;;;;;;;;;;5.44;80.04;100937.69;4194282;28;20016;-66
2023/02/19 05:02:58;;;;;;;;;;;;;;;5.47;79.99;100942.75;4194955;28;20028;-66
2023/02/19 05:05:00;;;;;;;;;;;;;;;5.47;79.42;100940.09;4196221;28;20050;-66
2023/02/19 05:07:02;;;;;;;;;;;;;;;5.46;79.96;100944.59;4195177;28;20342;-66
2023/02/19 05:09:04;;;;;;;;;;;;;;;5.45;79.63;100942.91;4195842;28;20055;-66
2023/02/19 05:11:06;;;;;;;;;;;;;;;5.44;79.44;100951.06;4193918;28;20007;-66
2023/02/19 05:13:10;;;;;;;;;;;;;;;5.34;79.62;100940.34;4194872;28;20011;-66
2023/02/19 05:15:12;;;;;;;;;;;;;;;5.39;79.27;100947.00;4191921;28;20015;-66
2023/02/19 05:17:13;;;;;;;;;;;;;;;5.37;78.89;100946.28;4195362;28;20035;-66
2023/02/19 05:19:15;;;;;;;;;;;;;;;5.36;79.33;100941.91;4192874;28;20011;-66
2023/02/19 05:21:17;;;;;;;;;;;;;;;5.37;79.44;100945.44;4195552;28;19932;-66
2023/02/19 05:23:20;;;;;;;;;;;;;;;5.35;78.92;100952.78;4195313;28;20027;-66
2023/02/19 05:25:22;;;;;;;;;;;;;;;5.31;79.10;100944.13;4202559;28;20393;-66
2023/02/19 05:27:24;;;;;;;;;;;;;;;5.28;79.21;100944.41;4194692;28;20024;-66
2023/02/19 05:29:27;;;;;;;;;;;;;;;5.27;79.14;100941.91;4194998;28;20016;-66
2023/02/19 05:31:32;;;;;;;;;;;;;;;5.19;79.31;100942.59;4193490;28;20418;-66
2023/02/19 05:33:34;;;;;;;;;;;;;;;5.22;80.28;100945.84;4193876;28;20028;-66
2023/02/19 05:35:40;;;;;;;;;;;;;;;5.25;80.12;100950.06;4192963;28;20019;-66
2023/02/19 05:37:42;;;;;;;;;;;;;;;5.22;80.48;100950.34;4194322;28;20015;-65
2023/02/19 05:39:44;;;;;;;;;;;;;;;5.24;80.93;100951.88;4194346;28;20024;-65
2023/02/19 05:41:46;;;;;;;;;;;;;;;5.22;80.62;100948.50;4193806;28;20031;-66
2023/02/19 05:43:48;;;;;;;;;;;;;;;5.26;80.58;100953.59;4194326;28;20446;-66
2023/02/19 05:45:52;;;;;;;;;;;;;;;5.26;80.42;100956.28;4200503;28;20019;-66
2023/02/19 05:47:54;;;;;;;;;;;;;;;5.26;81.07;100956.28;4192575;28;20322;-65
2023/02/19 05:49:56;;;;;;;;;;;;;;;5.27;80.75;100952.63;4192686;28;20031;-65
2023/02/19 05:51:58;;;;;;;;;;;;;;;5.23;81.17;100957.38;4193499;28;20810;-65
2023/02/19 05:54:00;;;;;;;;;;;;;;;5.22;80.79;100955.72;4194069;28;20019;-65
2023/02/19 05:56:02;;;;;;;;;;;;;;;5.22;80.49;100961.91;4194194;28;20018;-65
2023/02/19 05:58:04;;;;;;;;;;;;;;;5.20;80.45;100963.88;4193974;28;20012;-65
2023/02/19 06:00:06;;;;;;;;;;;;;;;5.21;81.23;100968.22;4193383;28;20019;-66
2023/02/19 06:02:15;;;;;;;;;;;;;;;5.21;80.50;100964.72;4195329;28;20022;-65
2023/02/19 06:04:19;;;;;;;;;;;;;;;5.21;80.38;100962.03;4193098;28;20449;-66
2023/02/19 06:06:21;;;;;;;;;;;;;;;5.20;80.42;100969.22;4193971;28;20028;-66
2023/02/19 06:08:23;;;;;;;;;;;;;;;5.18;80.15;100971.19;4186121;28;20032;-66
2023/02/19 06:10:27;;;;;;;;;;;;;;;5.19;80.31;100977.41;4193744;28;20355;-66
2023/02/19 06:12:28;;;;;;;;;;;;;;;5.18;80.48;100971.19;4195377;28;20015;-66
2023/02/19 06:14:30;;;;;;;;;;;;;;;5.21;80.39;100976.25;4194820;28;20020;-66
2023/02/19 06:16:33;;;;;;;;;;;;;;;5.18;80.55;100970.34;4194897;28;20035;-66
2023/02/19 06:18:36;;;;;;;;;;;;;;;5.20;80.93;100971.91;4194298;28;20035;-66
2023/02/19 06:20:38;;;;;;;;;;;;;;;5.19;81.03;100980.06;4193689;28;20046;-66
2023/02/19 06:22:40;;;;;;;;;;;;;;;5.18;81.07;100981.06;4193561;28;20018;-66
2023/02/19 06:24:42;;;;;;;;;;;;;;;5.20;80.83;100982.63;4192413;28;19924;-66
2023/02/19 06:26:45;;;;;;;;;;;;;;;5.19;81.03;100980.06;4200865;28;20441;-66
2023/02/19 06:28:48;;;;;;;;;;;;;;;5.20;80.75;100984.44;4194155;28;20366;-66
2023/02/19 06:30:50;;;;;;;;;;;;;;;5.23;80.96;100979.66;4193084;28;20015;-66
2023/02/19 06:32:53;;;;;;;;;;;;;;;5.22;80.91;100977.13;4194166;28;20015;-66
2023/02/19 06:34:56;;;;;;;;;;;;;;;5.24;80.96;100975.16;4193835;28;20015;-66
2023/02/19 06:36:58;;;;;;;;;;;;;;;5.18;79.99;100971.19;4193458;28;20733;-66
2023/02/19 06:39:01;;;;;;;;;;;;;;;5.13;80.22;100986.81;4194173;28;20027;-66
2023/02/19 06:41:03;;;;;;;;;;;;;;;5.14;80.27;100999.22;4187113;28;20051;-65
2023/02/19 06:43:05;;;;;;;;;;;;;;;5.13;80.22;100999.34;4191158;28;20206;-65
2023/02/19 06:45:07;;;;;;;;;;;;;;;5.16;80.63;100996.41;4192956;28;20027;-66
2023/02/19 06:47:09;;;;;;;;;;;;;;;5.15;80.39;101016.13;4193183;28;20426;-65
2023/02/19 06:49:11;;;;;;;;;;;;;;;5.17;80.57;101015.03;4194274;28;20030;-66
2023/02/19 06:51:17;;;;;;;;;;;;;;;5.18;80.11;101015.88;4192841;28;20024;-66
2023/02/19 06:53:19;;;;;;;;;;;;;;;5.17;80.14;101014.16;4193364;28;20031;-66
2023/02/19 06:55:21;;;;;;;;;;;;;;;5.16;80.13;101024.03;4193138;28;20200;-66
2023/02/19 06:57:23;;;;;;;;;;;;;;;5.15;79.38;101037.56;4194315;28;20016;-66
2023/02/19 06:59:25;;;;;;;;;;;;;;;5.13;79.88;101048.41;4192168;28;20031;-66
2023/02/19 07:01:27;;;;;;;;;;;;;;;5.14;79.47;101054.59;4188332;28;20074;-66
2023/02/19 07:03:29;;;;;;;;;;;;;;;5.11;79.11;101058.41;4196527;28;20035;-66
2023/02/19 07:05:31;;;;;;;;;;;;;;;5.08;78.96;101061.34;4195922;28;20391;-66
2023/02/19 07:07:34;;;;;;;;;;;;;;;5.05;79.09;101051.75;4194179;28;19963;-66
2023/02/19 07:09:36;;;;;;;;;;;;;;;5.04;78.88;101057.22;4193479;28;20019;-66
2023/02/19 07:11:38;;;;;;;;;;;;;;;5.02;79.10;101060.03;4195358;28;20011;-66
2023/02/19 07:13:40;;;;;;;;;;;;;;;5.01;79.16;101058.31;4197226;28;20012;-66
2023/02/19 07:15:42;;;;;;;;;;;;;;;4.97;78.95;101050.69;4194668;28;20019;-66
2023/02/19 07:17:45;;;;;;;;;;;;;;;4.97;78.82;101061.41;4195791;28;20031;-66
2023/02/19 07:19:47;;;;;;;;;;;;;;;4.97;78.90;101067.63;4196902;28;20015;-66
2023/02/19 07:21:49;;;;;;;;;;;;;;;4.97;78.80;101066.75;4196990;28;19995;-66
2023/02/19 07:23:53;;;;;;;;;;;;;;;4.94;78.50;101078.59;4196565;28;20022;-66
2023/02/19 07:25:55;;;;;;;;;;;;;;;4.92;78.90;101085.91;4196105;28;20443;-65
2023/02/19 07:27:57;;;;;;;;;;;;;;;4.92;78.75;101083.25;4197232;28;20031;-66
2023/02/19 07:29:59;;;;;;;;;;;;;;;4.92;78.62;101080.56;4197181;28;20023;-66
2023/02/19 07:32:01;;;;;;;;;;;;;;;4.80;78.05;101078.94;4196376;28;20023;-66
2023/02/19 07:34:03;;;;;;;;;;;;;;;4.67;78.26;101084.47;4196578;28;20015;-66
2023/02/19 07:36:06;;;;;;;;;;;;;;;4.59;79.35;101095.84;4196795;28;20020;-66
2023/02/19 07:38:08;;;;;;;;;;;;;;;4.61;79.55;101085.84;4196592;28;20019;-66
2023/02/19 07:40:12;;;;;;;;;;;;;;;4.60;79.33;101099.34;4195119;28;20015;-66
2023/02/19 07:42:13;;;;;;;;;;;;;;;4.58;79.34;101091.47;4199765;28;19967;-66
2023/02/19 07:44:16;;;;;;;;;;;;;;;4.57;79.08;101104.97;4198987;28;20385;-66
2023/02/19 07:46:18;;;;;;;;;;;;;;;4.49;78.98;101106.44;4197545;28;20023;-66
2023/02/19 07:48:21;;;;;;;;;;;;;;;4.48;79.30;101110.13;4196666;28;20085;-67
2023/02/19 07:50:23;;;;;;;;;;;;;;;4.50;79.46;101118.00;4197645;28;19975;-66
2023/02/19 07:52:25;;;;;;;;;;;;;;;4.54;79.63;101118.59;4196462;28;20047;-66
2023/02/19 07:54:27;;;;;;;;;;;;;;;4.58;79.80;101120.88;4196102;28;20027;-66
2023/02/19 07:56:30;;;;;;;;;;;;;;;4.66;80.44;101125.59;4194439;28;20011;-66
2023/02/19 07:58:32;;;;;;;;;;;;;;;4.69;79.82;101128.00;4193013;28;20015;-66
2023/02/19 08:00:34;;;;;;;;;;;;;;;4.67;79.63;101136.16;4201550;28;20434;-65
2023/02/19 08:04:56;;;;;;;;;;;;;;;4.73;79.38;101144.66;4194654;28;20036;-64
2023/02/19 08:06:58;;;;;;;;;;;;;;;4.75;79.49;101156.06;4193835;28;20451;-64
2023/02/19 08:09:00;;;;;;;;;;;;;;;4.76;79.38;101155.94;4195293;28;20047;-64
2023/02/19 08:13:24;;;;;;;;;;;;;;;4.76;78.85;101166.63;4191525;28;20027;-65
2023/02/19 08:15:26;;;;;;;;;;;;;;;4.77;79.18;101171.03;4192152;28;20023;-66
2023/02/19 08:17:29;;;;;;;;;;;;;;;4.78;79.09;101174.53;4193285;28;20453;-65
2023/02/19 08:19:31;;;;;;;;;;;;;;;4.80;79.17;101183.31;4193122;28;20039;-65
2023/02/19 08:21:33;;;;;;;;;;;;;;;4.81;78.81;101176.97;4193500;28;19952;-65
2023/02/19 08:23:35;;;;;;;;;;;;;;;4.82;78.68;101176.81;4194652;28;20042;-65
2023/02/19 08:25:37;;;;;;;;;;;;;;;4.84;78.86;101185.59;4191703;28;20019;-65
2023/02/19 08:27:39;;;;;;;;;;;;;;;4.88;78.48;101196.88;4193756;28;20019;-65
2023/02/19 08:29:42;;;;;;;;;;;;;;;4.88;78.12;101200.41;4193803;28;20015;-65
2023/02/19 08:31:44;;;;;;;;;;;;;;;4.95;78.57;101205.25;4195027;28;20023;-65
2023/02/19 08:33:46;;;;;;;;;;;;;;;4.98;78.45;101213.03;4195227;28;20010;-65
2023/02/19 08:35:48;;;;;;;;;;;;;;;5.05;78.28;101217.72;4195330;28;20015;-65
2023/02/19 08:37:50;;;;;;;;;;;;;;;5.11;78.10;101223.53;4195460;28;20027;-65
2023/02/19 08:39:52;;;;;;;;;;;;;;;5.14;77.76;101223.28;4194064;28;20016;-65
2023/02/19 08:41:54;;;;;;;;;;;;;;;5.16;77.69;101229.38;4194453;28;20437;-65
2023/02/19 08:43:56;;;;;;;;;;;;;;;5.22;77.56;101228.84;4193121;28;20007;-66
2023/02/19 08:45:59;;;;;;;;;;;;;;;5.29;77.46;101242.56;4194166;28;20031;-66
2023/02/19 08:48:01;;;;;;;;;;;;;;;5.35;77.63;101228.66;4194753;28;20015;-66
2023/02/19 08:50:03;;;;;;;;;;;;;;;5.39;77.18;101238.97;4193187;28;20011;-66
2023/02/19 08:52:05;;;;;;;;;;;;;;;5.47;77.08;101248.16;4194696;28;20031;-66
2023/02/19 08:54:07;;;;;;;;;;;;;;;5.51;76.77;101246.94;4192014;28;20019;-67
2023/02/19 08:56:10;;;;;;;;;;;;;;;5.57;76.28;101252.63;4194382;28;20039;-67
2023/02/19 08:58:12;;;;;;;;;;;;;;;5.59;75.57;101253.34;4193713;28;20026;-67
2023/02/19 09:00:14;;;;;;;;;;;;;;;5.64;75.61;101254.75;4192708;28;20470;-67
2023/02/19 09:02:18;;;;;;;;;;;;;;;5.71;75.39;101255.94;4193362;28;20055;-68
2023/02/19 09:04:20;;;;;;;;;;;;;;;5.72;74.84;101255.81;4191617;28;20011;-68
2023/02/19 09:06:22;;;;;;;;;;;;;;;5.80;74.88;101262.31;4203064;28;20019;-68
2023/02/19 09:08:24;;;;;;;;;;;;;;;5.86;75.52;101268.03;4194810;28;20031;-68
2023/02/19 09:10:26;;;;;;;;;;;;;;;5.92;75.68;101266.63;4193919;28;20008;-67
2023/02/19 09:12:28;;;;;;;;;;;;;;;6.00;75.71;101266.81;4195125;28;20473;-67
2023/02/19 09:14:31;;;;;;;;;;;;;;;6.03;74.80;101269.25;4193789;28;20023;-67
2023/02/19 09:16:33;;;;;;;;;;;;;;;6.06;74.55;101270.81;4193667;28;20028;-68
2023/02/19 09:18:36;;;;;;;;;;;;;;;6.08;74.40;101272.38;4192417;28;20011;-68
2023/02/19 09:20:39;;;;;;;;;;;;;;;6.10;73.49;101280.31;4193184;28;20003;-67
2023/02/19 09:22:41;;;;;;;;;;;;;;;6.11;73.63;101276.63;4193548;28;20027;-68
2023/02/19 09:24:43;;;;;;;;;;;;;;;6.13;73.53;101278.19;4192610;28;20023;-68
2023/02/19 09:26:45;;;;;;;;;;;;;;;6.16;73.73;101282.44;4193915;28;20100;-68
2023/02/19 09:28:47;;;;;;;;;;;;;;;6.19;73.94;101287.53;4192428;28;20022;-67
2023/02/19 09:30:49;;;;;;;;;;;;;;;6.21;73.63;101284.72;4192054;28;20016;-67
2023/02/19 09:32:51;;;;;;;;;;;;;;;6.24;73.77;101289.81;4193251;28;20377;-68
2023/02/19 09:34:54;;;;;;;;;;;;;;;6.27;73.58;101298.44;4190246;28;20351;-68
2023/02/19 09:36:56;;;;;;;;;;;;;;;6.29;73.51;101287.56;4192240;28;20019;-68
2023/02/19 09:38:59;;;;;;;;;;;;;;;6.30;73.91;101300.84;4194033;28;20027;-67
2023/02/19 09:41:05;;;;;;;;;;;;;;;6.35;74.66;101296.88;4194435;28;20059;-67
2023/02/19 09:43:08;;;;;;;;;;;;;;;6.43;74.65;101297.09;4195229;28;20027;-67
2023/02/19 09:45:12;;;;;;;;;;;;;;;6.50;75.33;101292.84;4192495;28;20015;-68
2023/02/19 09:47:15;;;;;;;;;;;;;;;6.54;74.61;101301.50;4192633;28;20015;-68
2023/02/19 09:49:18;;;;;;;;;;;;;;;6.56;74.39;101297.66;4194293;28;20019;-68
2023/02/19 09:51:21;;;;;;;;;;;;;;;6.61;74.90;101300.78;4194494;28;20088;-68
2023/02/19 09:53:24;;;;;;;;;;;;;;;6.67;74.74;101310.13;4193531;28;20447;-67
2023/02/19 09:55:29;;;;;;;;;;;;;;;6.67;74.35;101310.97;4192763;28;20023;-67
2023/02/19 09:57:32;;;;;;;;;;;;;;;6.67;73.42;101310.13;4193787;28;20019;-67
2023/02/19 09:59:44;;;;;;;;;;;;;;;6.62;72.48;101317.75;4194146;28;20450;-68
2023/02/19 10:01:46;;;;;;;;;;;;;;;6.60;72.19;101311.66;4194419;28;19974;-68
2023/02/19 10:03:48;;;;;;;;;;;;;;;6.60;72.87;101322.41;4192257;28;20020;-67
2023/02/19 10:05:50;;;;;;;;;;;;;;;6.57;71.63;101318.16;4192319;28;20020;-67
2023/02/19 10:07:54;;;;;;;;;;;;;;;6.61;73.36;101333.00;4193437;28;20015;-68
2023/02/19 10:09:57;;;;;;;;;;;;;;;6.70;74.02;101330.50;4201926;28;20039;-67
2023/02/19 10:11:59;;;;;;;;;;;;;;;6.75;73.54;101329.06;4194824;28;20031;-67
2023/02/19 10:14:03;;;;;;;;;;;;;;;6.84;71.89;101341.69;4194568;28;20020;-68
2023/02/19 10:16:05;;;;;;;;;;;;;;;6.86;72.49;101336.19;4191931;28;20466;-67
2023/02/19 10:18:07;;;;;;;;;;;;;;;6.92;73.69;101350.91;4194514;28;20776;-67
2023/02/19 10:20:12;;;;;;;;;;;;;;;6.99;73.85;101349.34;4193855;28;20019;-67
2023/02/19 10:22:14;;;;;;;;;;;;;;;7.00;72.61;101364.47;4193110;28;20022;-68
2023/02/19 10:24:19;;;;;;;;;;;;;;;7.05;72.71;101370.28;4192115;28;20031;-68
2023/02/19 10:26:22;;;;;;;;;;;;;;;7.09;71.94;101371.69;4192541;28;20019;-68
2023/02/19 10:28:24;;;;;;;;;;;;;;;7.09;71.64;101379.75;4193216;28;20359;-68
2023/02/19 10:30:28;;;;;;;;;;;;;;;7.07;69.80;101381.75;4193163;28;20020;-68
2023/02/19 10:32:30;;;;;;;;;;;;;;;7.02;68.44;101383.97;4193746;28;20159;-68
2023/02/19 10:34:32;;;;;;;;;;;;;;;7.01;71.09;101382.28;4192006;28;20015;-68
2023/02/19 10:36:35;;;;;;;;;;;;;;;7.04;71.59;101382.03;4193212;28;20022;-68
2023/02/19 10:38:38;;;;;;;;;;;;;;;7.06;71.00;101390.78;4197605;28;20494;-67
2023/02/19 10:40:41;;;;;;;;;;;;;;;7.11;71.74;101385.00;4194936;28;20007;-68
2023/02/19 10:42:45;;;;;;;;;;;;;;;7.14;72.86;101399.00;4197357;28;20030;-68
2023/02/19 10:44:48;;;;;;;;;;;;;;;7.19;72.99;101396.75;4197049;28;20023;-68
2023/02/19 10:46:51;;;;;;;;;;;;;;;7.22;73.83;101399.16;4196671;28;20023;-67
2023/02/19 10:48:53;;;;;;;;;;;;;;;7.37;73.45;101398.75;4197007;28;20039;-68
2023/02/19 10:50:56;;;;;;;;;;;;;;;7.44;72.21;101405.25;4195886;28;20099;-67
2023/02/19 10:52:59;;;;;;;;;;;;;;;7.46;71.49;101402.44;4196655;28;20019;-68
2023/02/19 10:55:14;;;;;;;;;;;;;;;7.43;69.65;101408.09;4195901;28;20020;-68
2023/02/19 10:57:33;;;;;;;;;;;;;;;7.39;70.84;101415.59;4197962;28;20023;-68
2023/02/19 10:59:35;;;;;;;;;;;;;;;7.39;72.84;101419.09;4196836;28;20035;-68
2023/02/19 11:01:37;;;;;;;;;;;;;;;7.43;73.50;101413.44;4195783;28;20027;-68
2023/02/19 11:03:39;;;;;;;;;;;;;;;7.49;73.82;101421.84;4196339;28;20052;-68
2023/02/19 11:05:49;;;;;;;;;;;;;;;7.64;73.48;101419.56;4197069;28;20051;-68
2023/02/19 11:07:52;;;;;;;;;;;;;;;7.76;72.86;101421.13;4197609;28;20023;-68
2023/02/19 11:09:54;;;;;;;;;;;;;;;7.82;73.14;101426.91;4195473;28;20035;-68